Time;durP1;ratioP1;P1;durP2;ratioP2;P2;SDS_P1;SDS_P2;PMS_P1;PMS_P2;Temp;Humidity;BMP_temperature;BMP_pressure;BME280_temperature;BME280_humidity;BME280_pressure;Samples;Min_cycle;Max_cycle;Signal;HPM_P1;HPM_P2
2023/02/22 00:00:21;;;;;;;44.83;24.85;;;;;;;2.91;100.00;93104.16;5070468;28;20048;-70
2023/02/22 00:02:49;;;;;;;43.70;25.05;;;;;;;3.12;100.00;93140.88;5070746;28;20048;-70
2023/02/22 00:05:18;;;;;;;34.60;19.50;;;;;;;3.05;100.00;93143.28;5069879;28;20045;-70
2023/02/22 00:07:47;;;;;;;29.27;17.35;;;;;;;2.99;100.00;93133.78;5070139;28;20044;-70
2023/02/22 00:10:19;;;;;;;27.63;16.42;;;;;;;3.02;100.00;93135.97;5068440;28;20044;-70
2023/02/22 00:12:47;;;;;;;27.27;16.15;;;;;;;3.00;100.00;93137.91;5069855;28;20084;-71
2023/02/22 00:15:15;;;;;;;24.23;15.18;;;;;;;2.97;100.00;93130.66;5043462;28;20052;-70
2023/02/22 00:17:41;;;;;;;22.15;13.93;;;;;;;2.94;100.00;93136.03;5070117;28;20455;-70
2023/02/22 00:20:12;;;;;;;21.02;12.30;;;;;;;2.88;100.00;93134.94;5070353;28;20041;-69
2023/02/22 00:22:40;;;;;;;18.20;11.20;;;;;;;2.93;100.00;93144.59;5070191;28;20470;-70
2023/02/22 00:25:08;;;;;;;17.27;10.05;;;;;;;2.90;100.00;93139.84;5070129;28;20048;-69
2023/02/22 00:27:35;;;;;;;16.48;10.52;;;;;;;2.85;100.00;93137.00;5069823;28;20053;-70
2023/02/22 00:30:02;;;;;;;18.35;10.73;;;;;;;2.83;100.00;93128.78;5069633;28;20481;-70
2023/02/22 00:32:29;;;;;;;17.17;10.73;;;;;;;2.54;100.00;93085.25;5069104;28;20044;-69
2023/02/22 00:34:55;;;;;;;21.02;10.68;;;;;;;2.82;100.00;93129.75;5056723;28;20409;-70
2023/02/22 00:37:22;;;;;;;19.92;12.15;;;;;;;2.76;100.00;93124.38;5043094;28;20044;-70
2023/02/22 00:39:49;;;;;;;17.38;10.77;;;;;;;2.73;100.00;93126.44;5069979;28;20098;-70
2023/02/22 00:42:18;;;;;;;17.08;10.13;;;;;;;2.67;100.00;93121.06;5043706;28;20037;-70
2023/02/22 00:44:45;;;;;;;19.10;9.55;;;;;;;2.68;100.00;93126.91;5069284;28;20053;-70
2023/02/22 00:47:12;;;;;;;15.23;9.32;;;;;;;2.65;100.00;93120.41;5069841;28;20550;-70
2023/02/22 00:49:38;;;;;;;18.75;9.98;;;;;;;2.69;100.00;93120.09;5056405;28;20395;-69
2023/02/22 00:52:06;;;;;;;14.80;9.50;;;;;;;2.69;100.00;93122.63;5069518;28;20045;-70
2023/02/22 00:54:33;;;;;;;18.08;9.55;;;;;;;2.77;100.00;93120.06;5069641;28;20080;-70
2023/02/22 00:56:59;;;;;;;19.33;11.60;;;;;;;2.77;100.00;93122.59;5069536;28;20048;-70
2023/02/22 00:59:29;;;;;;;20.92;12.77;;;;;;;2.76;100.00;93119.28;5069438;28;20045;-70
2023/02/22 01:01:57;;;;;;;21.88;13.27;;;;;;;2.73;100.00;93111.22;5069378;28;20523;-70
2023/02/22 01:04:24;;;;;;;23.42;12.55;;;;;;;2.74;100.00;93115.34;5067224;28;20040;-69
2023/02/22 01:06:50;;;;;;;22.52;12.85;;;;;;;2.72;100.00;93107.09;5059022;28;20096;-70
2023/02/22 01:09:17;;;;;;;22.63;14.07;;;;;;;2.72;100.00;93112.19;5069242;28;20048;-70
2023/02/22 01:11:55;;;;;;;21.85;12.77;;;;;;;2.70;100.00;93109.81;5068818;28;20044;-70
2023/02/22 01:14:22;;;;;;;23.73;14.80;;;;;;;2.63;100.00;93109.66;5068203;28;20056;-69
2023/02/22 01:16:50;;;;;;;18.92;12.07;;;;;;;2.60;100.00;93104.91;5069047;28;20057;-69
2023/02/22 01:19:17;;;;;;;13.27;7.35;;;;;;;2.50;100.00;93094.19;5069225;28;20098;-69
2023/02/22 01:21:44;;;;;;;15.52;8.70;;;;;;;2.44;100.00;93095.59;5068317;28;20071;-69
2023/02/22 01:24:25;;;;;;;;;;;;;;;;;;;;;
2023/02/22 01:27:07;;;;;;;9.93;6.07;;;;;;;2.21;100.00;93086.16;5068735;28;20508;-70
2023/02/22 01:32:16;;;;;;;11.38;6.32;;;;;;;2.16;100.00;93093.44;5067980;28;20056;-70
2023/02/22 01:34:42;;;;;;;11.55;6.88;;;;;;;2.16;100.00;93095.19;5068891;28;20048;-70
2023/02/22 01:37:09;;;;;;;10.70;6.18;;;;;;;2.15;100.00;93096.94;5068972;28;20484;-70
2023/02/22 01:39:36;;;;;;;12.70;6.97;;;;;;;2.09;100.00;93095.81;5069115;28;20064;-69
2023/02/22 01:42:02;;;;;;;10.57;5.97;;;;;;;2.12;100.00;93094.69;5068359;28;20036;-69
2023/02/22 01:44:31;;;;;;;13.38;6.82;;;;;;;2.06;100.00;93093.63;5068297;28;20524;-71
2023/02/22 01:47:00;;;;;;;10.55;6.65;;;;;;;2.08;100.00;93098.53;5068322;28;20036;-70
2023/02/22 01:49:38;;;;;;;11.02;6.57;;;;;;;2.08;100.00;93101.84;5068315;28;20044;-70
2023/02/22 01:52:09;;;;;;;12.07;6.78;;;;;;;2.03;100.00;93080.47;5068322;28;20466;-70
2023/02/22 01:54:39;;;;;;;12.10;5.93;;;;;;;2.08;100.00;93093.47;5068806;28;20094;-70
2023/02/22 01:57:11;;;;;;;13.75;6.95;;;;;;;2.02;100.00;93087.28;5068687;28;20097;-70
2023/02/22 01:59:41;;;;;;;15.77;8.50;;;;;;;1.98;100.00;93098.69;5068564;28;20489;-71
2023/02/22 02:02:08;;;;;;;14.82;8.48;;;;;;;1.79;100.00;93090.47;5068978;28;20056;-70
2023/02/22 02:04:37;;;;;;;15.55;10.07;;;;;;;1.56;100.00;93087.75;5068376;28;20044;-70
2023/02/22 02:07:07;;;;;;;13.75;8.02;;;;;;;1.44;100.00;93087.28;5069065;28;20053;-70
2023/02/22 02:09:40;;;;;;;16.33;8.63;;;;;;;1.39;100.00;93095.31;5068683;28;20049;-70
2023/02/22 02:12:11;;;;;;;15.07;8.40;;;;;;;1.32;100.00;93095.19;5059021;28;20052;-70
2023/02/22 02:14:39;;;;;;;14.80;7.70;;;;;;;1.37;100.00;93091.38;5060014;28;20106;-70
2023/02/22 02:17:09;;;;;;;15.73;8.65;;;;;;;1.44;100.00;93092.34;5059836;28;20045;-71
2023/02/22 02:19:49;;;;;;;15.45;9.65;;;;;;;1.46;100.00;93093.78;5068256;28;20052;-70
2023/02/22 02:22:30;;;;;;;15.27;9.32;;;;;;;1.63;100.00;93093.00;5068510;28;20102;-70
2023/02/22 02:25:45;;;;;;;14.02;8.68;;;;;;;1.72;100.00;93081.91;5068865;28;20106;-70
2023/02/22 02:28:26;;;;;;;;;;;;;;;1.78;100.00;93088.06;5069009;28;20059;-70
2023/02/22 02:31:13;;;;;;;18.23;11.18;;;;;;;1.65;100.00;93094.41;5066338;28;19920;-70
2023/02/22 02:33:44;;;;;;;22.92;15.60;;;;;;;1.58;100.00;93094.25;5070358;28;20045;-70
2023/02/22 02:36:19;;;;;;;20.70;13.77;;;;;;;1.57;100.00;93102.03;5072394;28;20114;-70
2023/02/22 02:38:54;;;;;;;21.50;12.05;;;;;;;1.35;100.00;93056.13;5072057;28;20053;-71
2023/02/22 02:41:26;;;;;;;18.98;10.57;;;;;;;1.75;100.00;93093.47;5072440;28;20045;-70
2023/02/22 02:43:59;;;;;;;16.90;10.85;;;;;;;1.58;100.00;93060.56;5071743;28;20045;-70
2023/02/22 02:46:32;;;;;;;15.02;9.52;;;;;;;1.85;100.00;93094.88;5071642;28;20056;-70
2023/02/22 02:49:06;;;;;;;16.92;8.80;;;;;;;1.93;100.00;93095.81;5071851;28;20121;-70
2023/02/22 02:51:37;;;;;;;11.63;6.93;;;;;;;1.97;100.00;93104.69;5072329;28;20041;-70
2023/02/22 02:54:06;;;;;;;13.75;6.90;;;;;;;1.96;100.00;93103.94;5071666;28;20552;-70
2023/02/22 02:56:33;;;;;;;12.07;7.53;;;;;;;1.84;100.00;93079.84;5072006;28;20144;-70
2023/02/22 02:59:00;;;;;;;12.95;8.05;;;;;;;1.94;100.00;93102.50;5072206;28;20048;-70
2023/02/22 03:01:45;;;;;;;16.20;8.32;;;;;;;1.96;100.00;93108.19;5045508;28;20041;-70
2023/02/22 03:04:30;;;;;;;13.48;7.30;;;;;;;1.94;100.00;93103.28;5071565;28;20054;-70
2023/02/22 03:07:24;;;;;;;9.55;5.95;;;;;;;1.86;100.00;93109.13;5071985;28;20052;-70
2023/02/22 03:10:02;;;;;;;9.40;5.22;;;;;;;1.78;100.00;93111.69;5071500;28;20044;-71
2023/02/22 03:12:41;;;;;;;9.13;5.30;;;;;;;1.69;100.00;93115.16;5071819;28;20102;-71
2023/02/22 03:15:20;;;;;;;11.93;5.93;;;;;;;1.64;100.00;93119.88;5071776;28;20045;-70
2023/02/22 03:17:54;;;;;;;9.43;5.45;;;;;;;1.58;100.00;93117.03;5048391;28;20782;-70
2023/02/22 03:20:30;;;;;;;11.20;6.03;;;;;;;1.54;100.00;93114.97;5071205;28;20044;-70
2023/02/22 03:23:01;;;;;;;11.70;6.80;;;;;;;1.48;100.00;93110.53;5071941;28;20044;-70
2023/02/22 03:25:34;;;;;;;9.85;6.30;;;;;;;1.44;100.00;93115.13;5071044;28;20577;-71
2023/02/22 03:28:04;;;;;;;10.02;6.53;;;;;;;1.36;100.00;93104.97;5071294;28;20045;-70
2023/02/22 03:30:37;;;;;;;14.13;6.85;;;;;;;1.44;100.00;93120.19;5070882;28;20090;-70
2023/02/22 03:33:09;;;;;;;10.13;6.63;;;;;;;1.42;100.00;93117.81;5071435;28;20143;-70
2023/02/22 03:35:41;;;;;;;10.55;6.05;;;;;;;1.42;100.00;93117.81;5071087;28;20099;-70
2023/02/22 03:38:14;;;;;;;11.48;6.40;;;;;;;1.39;100.00;93117.34;5057648;28;20500;-70
2023/02/22 03:40:45;;;;;;;13.77;6.65;;;;;;;1.43;100.00;93121.91;5071258;28;20459;-71
2023/02/22 03:43:16;;;;;;;11.73;7.35;;;;;;;1.40;100.00;93112.13;5070778;28;20485;-71
2023/02/22 03:45:47;;;;;;;12.85;7.25;;;;;;;1.40;100.00;93122.25;5069276;28;20056;-71
2023/02/22 03:48:20;;;;;;;12.68;8.32;;;;;;;1.38;100.00;93114.00;5068786;28;20041;-70
2023/02/22 03:50:50;;;;;;;18.40;13.20;;;;;;;1.31;100.00;93118.09;5069479;28;20503;-70
2023/02/22 03:53:18;;;;;;;18.45;12.07;;;;;;;1.29;100.00;93117.47;5070776;28;20049;-71
2023/02/22 03:55:46;;;;;;;20.38;14.10;;;;;;;1.11;100.00;93108.25;5070234;28;20058;-70
2023/02/22 03:58:14;;;;;;;21.80;14.57;;;;;;;1.23;100.00;93115.53;5070347;28;20578;-71
2023/02/22 04:00:43;;;;;;;23.08;13.98;;;;;;;1.12;100.00;93126.75;5070724;28;20141;-70
2023/02/22 04:03:10;;;;;;;18.58;11.88;;;;;;;1.19;100.00;93122.66;5070712;28;20052;-71
2023/02/22 04:05:37;;;;;;;20.15;13.55;;;;;;;1.20;100.00;93114.91;5070737;28;20049;-70
2023/02/22 04:08:06;;;;;;;17.83;12.63;;;;;;;1.20;100.00;93114.09;5070311;28;20044;-71
2023/02/22 04:10:33;;;;;;;18.70;12.63;;;;;;;1.18;100.00;93111.75;5070350;28;20042;-70
2023/02/22 04:13:00;;;;;;;19.55;12.88;;;;;;;1.22;100.00;93107.19;5070733;28;20047;-70
2023/02/22 04:15:26;;;;;;;19.45;12.35;;;;;;;1.25;100.00;93114.44;5069877;28;20090;-70
2023/02/22 04:17:53;;;;;;;20.83;13.55;;;;;;;1.28;100.00;93110.81;5070465;28;20045;-71
2023/02/22 04:20:24;;;;;;;20.77;13.48;;;;;;;1.25;100.00;93109.38;5070339;28;21140;-70
2023/02/22 04:22:52;;;;;;;25.08;16.83;;;;;;;1.28;100.00;93114.16;5070136;28;20041;-70
2023/02/22 04:25:20;;;;;;;24.48;14.65;;;;;;;1.26;100.00;93116.03;5069845;28;20046;-70
2023/02/22 04:27:47;;;;;;;29.58;17.67;;;;;;;1.24;100.00;93112.88;5069706;28;20496;-70
2023/02/22 04:30:18;;;;;;;26.90;16.77;;;;;;;1.22;100.00;93113.97;5070128;28;20040;-70
2023/02/22 04:32:45;;;;;;;34.08;20.00;;;;;;;1.13;100.00;93108.91;5069773;28;20094;-71
2023/02/22 04:35:12;;;;;;;35.17;19.70;;;;;;;1.11;100.00;93115.06;5069245;28;20048;-71
2023/02/22 04:37:38;;;;;;;35.22;20.30;;;;;;;1.06;100.00;93108.72;5069811;28;20045;-70
2023/02/22 04:40:07;;;;;;;30.52;18.05;;;;;;;1.08;100.00;93113.63;5069431;28;20489;-70
2023/02/22 04:42:35;;;;;;;31.25;18.52;;;;;;;0.92;100.00;93110.09;5070051;28;20048;-70
2023/02/22 04:45:02;;;;;;;29.33;18.77;;;;;;;0.95;100.00;93121.63;5069298;28;20045;-71
2023/02/22 04:47:29;;;;;;;26.70;16.80;;;;;;;1.00;100.00;93116.91;5069563;28;20098;-70
2023/02/22 04:49:56;;;;;;;27.05;16.65;;;;;;;0.85;100.00;93106.59;5069672;28;20041;-70
2023/02/22 04:52:23;;;;;;;24.17;15.93;;;;;;;0.97;100.00;93111.38;5069904;28;20041;-70
2023/02/22 04:54:49;;;;;;;28.17;16.05;;;;;;;0.95;100.00;93118.31;5069195;28;20049;-71
2023/02/22 04:57:16;;;;;;;25.50;16.67;;;;;;;0.97;100.00;93117.22;5069071;28;20048;-71
2023/02/22 04:59:44;;;;;;;28.55;16.75;;;;;;;0.99;100.00;93109.47;5069632;28;20044;-70
2023/02/22 05:02:11;;;;;;;23.50;15.38;;;;;;;1.00;100.00;93116.91;5069661;28;20078;-71
2023/02/22 05:04:38;;;;;;;21.75;13.13;;;;;;;0.99;100.00;93115.34;5069658;28;20114;-71
2023/02/22 05:07:05;;;;;;;21.23;13.40;;;;;;;0.97;100.00;93111.38;5069496;28;20048;-71
2023/02/22 05:09:32;;;;;;;18.27;12.10;;;;;;;1.02;100.00;93112.47;5068837;28;20097;-71
2023/02/22 05:11:58;;;;;;;22.48;12.05;;;;;;;1.04;100.00;93117.41;5069045;28;20049;-71
2023/02/22 05:14:26;;;;;;;19.88;11.73;;;;;;;1.04;100.00;93118.19;5069547;28;20405;-71
2023/02/22 05:16:56;;;;;;;16.38;8.13;;;;;;;1.02;100.00;93114.25;5069098;28;20131;-71
2023/02/22 05:19:23;;;;;;;11.35;7.32;;;;;;;0.97;100.00;93124.03;5069221;28;20071;-71
2023/02/22 05:21:50;;;;;;;13.95;6.55;;;;;;;0.93;100.00;93121.00;5069540;28;20053;-71
2023/02/22 05:24:17;;;;;;;12.60;7.32;;;;;;;0.91;100.00;93115.28;5068937;28;20044;-71
2023/02/22 05:26:46;;;;;;;14.10;7.20;;;;;;;0.79;100.00;93118.09;5069005;28;20131;-71
2023/02/22 05:29:13;;;;;;;18.33;7.63;;;;;;;0.57;100.00;93131.28;5068986;28;20068;-70
2023/02/22 05:31:41;;;;;;;11.98;7.30;;;;;;;0.57;100.00;93124.50;5068684;28;20558;-70
2023/02/22 05:34:09;;;;;;;18.55;8.27;;;;;;;0.56;100.00;93132.22;5069086;28;20132;-70
2023/02/22 05:36:35;;;;;;;18.42;9.43;;;;;;;0.55;100.00;93128.88;5068341;28;20068;-70
2023/02/22 05:39:02;;;;;;;28.23;16.95;;;;;;;0.55;100.00;93133.16;5068550;28;20060;-70
2023/02/22 05:41:31;;;;;;;34.72;20.25;;;;;;;0.51;100.00;93137.72;5069055;28;20048;-70
2023/02/22 05:43:57;;;;;;;29.75;20.30;;;;;;;0.33;100.00;93135.25;5069188;28;20052;-70
2023/02/22 05:46:24;;;;;;;25.55;16.23;;;;;;;0.28;100.00;93145.00;5068427;28;20052;-70
2023/02/22 05:48:51;;;;;;;31.27;18.45;;;;;;;0.35;100.00;93143.47;5067213;28;20122;-70
2023/02/22 05:51:19;;;;;;;31.30;19.08;;;;;;;0.45;100.00;93146.69;5064311;28;20098;-70
2023/02/22 05:53:46;;;;;;;47.45;28.92;;;;;;;0.52;100.00;93147.66;5069101;28;20448;-70
2023/02/22 05:56:12;;;;;;;40.25;23.55;;;;;;;0.62;100.00;93151.84;5068519;28;20102;-70
2023/02/22 05:58:39;;;;;;;37.05;21.88;;;;;;;0.75;100.00;93153.97;5069000;28;20105;-70
2023/02/22 06:01:06;;;;;;;29.63;17.92;;;;;;;0.89;100.00;93155.91;5068398;28;20044;-71
2023/02/22 06:03:32;;;;;;;26.00;16.52;;;;;;;1.01;100.00;93156.44;5068772;28;20094;-70
2023/02/22 06:05:59;;;;;;;23.25;13.07;;;;;;;1.14;100.00;93158.53;5068392;28;20096;-71
2023/02/22 06:08:27;;;;;;;20.50;11.68;;;;;;;1.24;100.00;93162.69;5071943;28;20040;-71
2023/02/22 06:10:54;;;;;;;20.35;10.70;;;;;;;1.31;100.00;93164.44;5072484;28;20044;-71
2023/02/22 06:13:21;;;;;;;17.70;9.57;;;;;;;1.23;100.00;93138.31;5072932;28;20048;-71
2023/02/22 06:15:47;;;;;;;25.15;15.57;;;;;;;1.49;100.00;93163.56;5072018;28;20041;-71
2023/02/22 06:18:14;;;;;;;30.45;17.35;;;;;;;1.60;100.00;93167.50;5072481;28;20052;-71
2023/02/22 06:20:41;;;;;;;42.63;28.55;;;;;;;1.75;100.00;93167.69;5072387;28;20443;-71
2023/02/22 06:23:08;;;;;;;27.50;19.55;;;;;;;1.87;100.00;93160.59;5072739;28;20055;-71
2023/02/22 06:25:36;;;;;;;26.55;17.13;;;;;;;1.95;100.00;93160.59;5072308;28;20041;-71
2023/02/22 06:28:03;;;;;;;20.10;14.15;;;;;;;2.11;100.00;93159.00;5072188;28;20527;-71
2023/02/22 06:30:30;;;;;;;31.88;18.00;;;;;;;2.25;100.00;93162.66;5072326;28;20040;-71
2023/02/22 06:32:57;;;;;;;29.65;15.88;;;;;;;2.25;100.00;93163.44;5072612;28;20538;-71
2023/02/22 06:35:23;;;;;;;31.95;20.10;;;;;;;2.42;100.00;93165.16;5067046;28;20045;-71
2023/02/22 06:37:50;;;;;;;36.92;21.90;;;;;;;2.43;100.00;93151.53;5064898;28;20526;-71
2023/02/22 06:40:17;;;;;;;42.05;27.02;;;;;;;2.65;100.00;93166.06;5068915;28;20048;-71
2023/02/22 06:42:48;;;;;;;35.70;22.70;;;;;;;2.77;100.00;93168.25;5070144;28;20045;-71
2023/02/22 06:45:16;;;;;;;39.97;23.77;;;;;;;2.92;100.00;93165.88;5071041;28;20451;-71
2023/02/22 06:47:43;;;;;;;31.58;18.48;;;;;;;3.03;100.00;93169.78;5072141;28;20106;-71
2023/02/22 06:50:20;;;;;;;28.05;15.77;;;;;;;3.15;100.00;93171.00;5071401;28;20087;-71
2023/02/22 06:52:47;;;;;;;30.95;15.43;;;;;;;3.30;100.00;93168.56;5071931;28;20094;-72
2023/02/22 06:55:18;;;;;;;31.98;16.92;;;;;;;3.47;100.00;93169.28;5071238;28;20125;-71
2023/02/22 06:57:46;;;;;;;29.08;17.33;;;;;;;3.59;100.00;93169.69;5071339;28;20055;-72
2023/02/22 07:00:15;;;;;;;45.28;27.05;;;;;;;3.77;100.00;93160.22;5071204;28;20044;-71
2023/02/22 07:02:42;;;;;;;29.85;19.00;;;;;;;3.90;100.00;93159.66;5071603;28;20049;-71
2023/02/22 07:05:10;;;;;;;43.65;24.75;;;;;;;3.80;100.00;93163.19;5071915;28;20135;-71
2023/02/22 07:07:38;;;;;;;52.67;29.63;;;;;;;3.94;100.00;93166.75;5071240;28;20052;-71
2023/02/22 07:10:07;;;;;;;41.10;21.27;;;;;;;3.92;100.00;93161.06;5071398;28;20044;-71
2023/02/22 07:12:33;;;;;;;32.35;18.83;;;;;;;3.90;100.00;93160.47;5071431;28;20048;-71
2023/02/22 07:15:02;;;;;;;30.88;17.75;;;;;;;3.90;100.00;93162.19;5071315;28;20565;-70
2023/02/22 07:17:28;;;;;;;27.60;15.48;;;;;;;3.93;100.00;93156.78;5071465;28;20117;-71
2023/02/22 07:19:55;;;;;;;42.88;20.58;;;;;;;3.92;100.00;93161.06;5062915;28;20103;-70
2023/02/22 07:22:22;;;;;;;30.60;15.93;;;;;;;4.07;100.00;93157.78;5066334;28;20052;-70
2023/02/22 07:24:48;;;;;;;34.33;15.77;;;;;;;4.16;100.00;93159.28;5071433;28;20049;-70
2023/02/22 07:27:16;;;;;;;34.42;17.17;;;;;;;4.24;100.00;93146.53;5071368;28;20048;-70
2023/02/22 07:29:43;;;;;;;33.28;16.40;;;;;;;4.40;100.00;93149.91;5071435;28;20102;-70
2023/02/22 07:32:11;;;;;;;41.00;19.10;;;;;;;4.51;100.00;93146.13;5071005;28;20086;-70
2023/02/22 07:34:38;;;;;;;36.15;17.20;;;;;;;4.65;100.00;93131.84;5059166;28;20602;-70
2023/02/22 07:37:05;;;;;;;32.60;16.40;;;;;;;5.00;100.00;93149.13;5070133;28;20064;-70
2023/02/22 07:39:33;;;;;;;29.20;18.02;;;;;;;5.14;100.00;93152.63;5064120;28;20049;-70
2023/02/22 07:41:59;;;;;;;34.53;16.98;;;;;;;5.30;98.33;93151.66;5062981;28;20138;-71
2023/02/22 07:44:26;;;;;;;30.48;14.73;;;;;;;5.43;96.12;93154.34;5064886;28;20087;-70
2023/02/22 07:46:53;;;;;;;28.08;13.35;;;;;;;5.58;93.25;93149.22;5063019;28;20053;-70
2023/02/22 07:49:21;;;;;;;23.77;11.13;;;;;;;5.83;90.73;93153.19;5070797;28;20098;-70
2023/02/22 07:51:48;;;;;;;22.88;11.07;;;;;;;6.05;89.59;93151.44;5071039;28;20044;-70
2023/02/22 07:54:15;;;;;;;21.13;11.02;;;;;;;6.30;89.38;93156.19;5070744;28;20060;-70
2023/02/22 07:56:46;;;;;;;23.70;11.90;;;;;;;6.65;86.62;93152.88;5070809;28;20048;-70
2023/02/22 07:59:12;;;;;;;30.65;13.52;;;;;;;6.84;80.88;93153.97;5070500;28;20040;-70
2023/02/22 08:01:39;;;;;;;33.97;13.77;;;;;;;6.96;82.88;93149.13;5066819;28;20045;-70
2023/02/22 08:04:06;;;;;;;32.22;13.93;;;;;;;7.26;85.67;93146.31;5064542;28;20458;-70
2023/02/22 08:06:34;;;;;;;24.20;9.77;;;;;;;7.47;80.30;93139.53;5070535;28;20067;-71
2023/02/22 08:09:01;;;;;;;21.52;8.27;;;;;;;7.78;80.05;93135.66;5070576;28;20053;-70
2023/02/22 08:11:28;;;;;;;25.67;8.98;;;;;;;7.99;75.07;93139.03;5070623;28;20090;-70
2023/02/22 08:13:55;;;;;;;25.15;9.98;;;;;;;8.15;74.54;93133.53;5070107;28;20193;-70
2023/02/22 08:16:21;;;;;;;23.63;9.38;;;;;;;8.36;77.17;93126.66;5070381;28;20792;-70
2023/02/22 08:18:48;;;;;;;28.48;10.00;;;;;;;8.67;74.66;93129.63;5069969;28;20048;-70
2023/02/22 08:21:16;;;;;;;30.83;9.63;;;;;;;9.01;73.92;93132.88;5070103;28;20048;-70
2023/02/22 08:23:44;;;;;;;39.10;12.57;;;;;;;9.23;68.56;93133.41;5069807;28;20045;-70
2023/02/22 08:26:14;;;;;;;33.97;12.30;;;;;;;9.33;67.18;93137.31;5070122;28;20052;-70
2023/02/22 08:28:42;;;;;;;33.60;10.98;;;;;;;9.38;68.47;93132.38;5069715;28;20049;-70
2023/02/22 08:31:08;;;;;;;35.20;13.48;;;;;;;9.34;67.63;93103.00;5069102;28;20068;-70
2023/02/22 08:33:35;;;;;;;31.85;10.90;;;;;;;9.52;64.60;93129.72;5069815;28;20093;-70
2023/02/22 08:36:02;;;;;;;41.75;11.93;;;;;;;9.63;66.28;93127.31;5069452;28;20398;-70
2023/02/22 08:38:32;;;;;;;35.20;11.40;;;;;;;9.92;69.71;93121.03;5070021;28;20447;-70
2023/02/22 08:41:00;;;;;;;42.17;13.73;;;;;;;10.19;68.60;93116.53;5069939;28;20052;-71
2023/02/22 08:43:28;;;;;;;66.40;16.35;;;;;;;10.39;63.70;93118.13;5069831;28;20451;-70
2023/02/22 08:45:55;;;;;;;44.08;13.40;;;;;;;10.48;61.90;93111.78;5069817;28;20063;-71
2023/02/22 08:48:22;;;;;;;51.03;14.55;;;;;;;10.66;64.67;93112.78;5068988;28;20450;-71
2023/02/22 08:50:48;;;;;;;39.80;12.35;;;;;;;10.77;60.64;93119.81;5069680;28;20102;-71
2023/02/22 08:53:16;;;;;;;27.67;11.48;;;;;;;10.91;62.85;93112.75;5069390;28;20041;-71
2023/02/22 08:55:43;;;;;;;33.72;11.18;;;;;;;11.02;61.74;93116.38;5057603;28;20045;-71
2023/02/22 08:58:12;;;;;;;25.33;8.35;;;;;;;11.29;61.62;93116.06;5068336;28;20045;-71
2023/02/22 09:00:40;;;;;;;22.05;7.15;;;;;;;11.36;60.34;93109.06;5069337;28;20102;-71
2023/02/22 09:03:09;;;;;;;18.85;7.18;;;;;;;11.54;57.70;93115.19;5059459;28;20444;-72
2023/02/22 09:05:39;;;;;;;19.20;7.75;;;;;;;11.84;63.66;93104.09;5064676;28;20044;-71
2023/02/22 09:08:07;;;;;;;15.20;5.10;;;;;;;12.02;55.90;93108.41;5068512;28;20041;-71
2023/02/22 09:10:35;;;;;;;15.00;5.63;;;;;;;12.39;62.60;93106.69;5068378;28;20052;-71
2023/02/22 09:13:02;;;;;;;15.98;5.68;;;;;;;12.74;60.23;93099.97;5068909;28;20491;-71
2023/02/22 09:15:32;;;;;;;13.60;6.15;;;;;;;13.02;59.28;93107.00;5069083;28;20040;-71
2023/02/22 09:17:58;;;;;;;24.58;7.95;;;;;;;12.92;54.52;93097.25;5069537;28;20071;-71
2023/02/22 09:20:25;;;;;;;24.42;6.63;;;;;;;13.17;59.25;93098.78;5069113;28;20045;-70
2023/02/22 09:22:53;;;;;;;22.52;7.28;;;;;;;13.44;56.44;93100.06;5069566;28;20052;-70
2023/02/22 09:25:20;;;;;;;12.88;5.65;;;;;;;13.36;54.18;93104.56;5069384;28;20095;-70
2023/02/22 09:27:48;;;;;;;19.65;6.43;;;;;;;13.28;53.93;93094.59;5069584;28;20419;-70
2023/02/22 09:30:23;;;;;;;15.15;5.65;;;;;;;13.56;56.11;93082.00;5069091;28;20104;-70
2023/02/22 09:32:54;;;;;;;16.77;6.13;;;;;;;13.88;54.88;93092.59;5068734;28;20389;-70
2023/02/22 09:35:25;;;;;;;21.25;5.80;;;;;;;14.01;53.89;93088.16;5068957;28;20086;-70
2023/02/22 09:37:53;;;;;;;16.05;5.78;;;;;;;14.01;50.75;93088.94;5069300;28;20044;-70
2023/02/22 09:40:24;;;;;;;17.45;4.93;;;;;;;13.61;50.10;93095.75;5069250;28;20037;-70
2023/02/22 09:43:02;;;;;;;23.48;6.65;;;;;;;13.59;50.64;93091.84;5069002;28;20048;-70
2023/02/22 09:45:35;;;;;;;20.85;6.30;;;;;;;13.67;50.90;93094.06;5068776;28;20090;-70
2023/02/22 09:48:07;;;;;;;18.48;6.35;;;;;;;13.96;51.51;93096.59;5067957;28;20092;-70
2023/02/22 09:50:37;;;;;;;12.93;5.25;;;;;;;14.02;52.26;93087.13;5068817;28;20040;-70
2023/02/22 09:53:06;;;;;;;11.73;4.65;;;;;;;13.98;50.90;93060.22;5068778;28;20053;-70
2023/02/22 09:55:37;;;;;;;13.80;5.55;;;;;;;14.30;49.85;93080.31;5069134;28;20040;-70
2023/02/22 09:58:11;;;;;;;9.32;3.70;;;;;;;14.06;47.77;93077.13;5068767;28;20040;-70
2023/02/22 10:00:42;;;;;;;13.25;4.60;;;;;;;14.46;53.27;93077.97;5068839;28;20090;-71
2023/02/22 10:03:22;;;;;;;12.10;4.43;;;;;;;14.74;51.57;93077.06;5068332;28;20044;-70
2023/02/22 10:05:55;;;;;;;12.00;4.65;;;;;;;15.05;52.79;93072.31;5068422;28;20131;-71
2023/02/22 10:08:28;;;;;;;10.63;4.25;;;;;;;15.18;46.30;93068.56;5068788;28;20102;-71
2023/02/22 10:11:06;;;;;;;13.40;4.68;;;;;;;15.20;47.34;93068.34;5068909;28;20041;-71
2023/02/22 10:13:43;;;;;;;11.20;4.30;;;;;;;15.44;48.99;93047.38;5069114;28;20094;-71
2023/02/22 10:16:21;;;;;;;12.38;4.10;;;;;;;15.18;46.01;93047.88;5068095;28;20037;-71
2023/02/22 10:19:11;;;;;;;4.72;2.08;;;;;;;14.77;44.51;93068.09;5049269;28;20532;-70
2023/02/22 10:22:13;;;;;;;17.60;6.90;;;;;;;14.52;45.19;93053.75;5064254;28;20048;-71
2023/02/22 10:24:53;;;;;;;17.67;6.38;;;;;;;14.67;49.34;93046.22;5027765;28;20475;-71
2023/02/22 10:27:22;;;;;;;6.75;3.22;;;;;;;14.92;45.00;93028.69;5066153;28;20502;-72
2023/02/22 10:29:52;;;;;;;4.03;1.98;;;;;;;15.18;46.15;93034.19;5065086;28;20048;-71
2023/02/22 10:32:25;;;;;;;5.00;2.20;;;;;;;15.48;45.86;93031.13;5067961;28;20045;-70
2023/02/22 10:34:56;;;;;;;6.68;2.35;;;;;;;15.71;47.46;93034.44;5068510;28;20059;-69
2023/02/22 10:37:26;;;;;;;4.93;2.17;;;;;;;15.62;45.94;93028.91;5068650;28;20386;-69
2023/02/22 10:39:59;;;;;;;3.53;2.15;;;;;;;15.13;43.59;93023.78;5068020;28;20044;-69
2023/02/22 10:42:27;;;;;;;3.65;2.00;;;;;;;15.10;43.96;93018.03;5068405;28;20160;-70
2023/02/22 10:44:53;;;;;;;4.47;2.28;;;;;;;15.27;43.44;93004.25;5068505;28;20048;-70
2023/02/22 10:47:21;;;;;;;4.95;1.80;;;;;;;15.31;45.50;93001.94;5068268;28;20122;-70
2023/02/22 10:49:52;;;;;;;12.05;3.13;;;;;;;15.53;48.33;92998.53;5068293;28;20446;-70
2023/02/22 10:52:28;;;;;;;5.10;1.50;;;;;;;15.79;45.42;92994.38;5068601;28;20057;-69
2023/02/22 10:54:57;;;;;;;2.50;1.40;;;;;;;15.90;43.62;92996.00;5044328;28;20053;-69
2023/02/22 10:57:27;;;;;;;3.75;1.73;;;;;;;16.10;45.60;92986.81;5071669;28;20044;-70
2023/02/22 10:59:56;;;;;;;3.08;1.48;;;;;;;16.12;45.61;92986.59;5071756;28;20040;-70
2023/02/22 11:02:27;;;;;;;3.72;1.83;;;;;;;16.20;43.16;92980.91;5071756;28;20052;-70
2023/02/22 11:04:56;;;;;;;3.28;1.45;;;;;;;15.83;40.99;92984.28;5071625;28;20041;-69
2023/02/22 11:07:27;;;;;;;3.38;1.60;;;;;;;15.84;41.85;92984.03;5071203;28;20045;-69
2023/02/22 11:09:57;;;;;;;7.38;1.80;;;;;;;16.15;45.43;92976.50;5071358;28;20055;-70
2023/02/22 11:12:30;;;;;;;4.10;1.98;;;;;;;16.44;43.48;92977.97;5071807;28;20044;-70
2023/02/22 11:15:18;;;;;;;4.53;1.70;;;;;;;16.11;41.07;92974.66;5071427;28;20045;-70
2023/02/22 11:17:47;;;;;;;5.13;2.20;;;;;;;16.42;42.69;92962.66;5071776;28;20040;-70
2023/02/22 11:20:24;;;;;;;2.75;1.27;;;;;;;15.70;40.61;92972.53;5071946;28;20056;-70
2023/02/22 11:22:54;;;;;;;8.20;3.42;;;;;;;15.36;41.42;92973.53;5071728;28;20052;-69
2023/02/22 11:25:24;;;;;;;5.45;2.10;;;;;;;15.45;40.93;92951.38;5071215;28;20071;-70
2023/02/22 11:27:52;;;;;;;3.47;1.77;;;;;;;15.70;40.64;92964.75;5063724;28;20052;-70
2023/02/22 11:30:31;;;;;;;6.07;3.05;;;;;;;15.52;41.28;92950.38;5069015;28;20488;-70
2023/02/22 11:33:03;;;;;;;4.05;2.17;;;;;;;15.60;40.98;92955.88;5070268;28;20049;-70
2023/02/22 11:35:49;;;;;;;3.22;1.73;;;;;;;15.79;43.54;92954.72;5066533;28;20054;-70
2023/02/22 11:38:21;;;;;;;5.10;2.75;;;;;;;15.80;40.69;92954.50;5067954;28;20057;-70